createdAt,value
2022-09-13T00:00:08.765Z,100112.16
2022-09-13T00:02:36.514Z,100115.44
2022-09-13T00:05:04.978Z,100115.69
2022-09-13T00:07:32.743Z,100115.97
2022-09-13T00:10:01.866Z,100115.19
2022-09-13T00:12:30.111Z,100107.41
2022-09-13T00:14:57.889Z,100109.56
2022-09-13T00:17:26.718Z,100095.56
2022-09-13T00:19:54.940Z,100084.00
2022-09-13T00:22:22.777Z,100082.66
2022-09-13T00:24:51.038Z,100072.75
2022-09-13T00:27:20.167Z,100077.59
2022-09-13T00:29:47.983Z,100068.19
2022-09-13T00:32:16.007Z,100064.97
2022-09-13T00:34:43.814Z,100070.66
2022-09-13T00:37:11.587Z,100069.00
2022-09-13T00:39:39.906Z,100058.56
2022-09-13T00:42:11.432Z,100059.34
2022-09-13T00:44:59.147Z,100057.75
2022-09-13T00:47:34.847Z,100051.56
2022-09-13T00:50:11.151Z,100055.34
2022-09-13T00:52:46.095Z,100050.25
2022-09-13T00:55:20.753Z,100049.97
2022-09-13T00:57:48.699Z,100044.06
2022-09-13T01:00:20.877Z,100039.47
2022-09-13T01:02:53.863Z,100033.03
2022-09-13T01:05:27.993Z,100030.34
2022-09-13T01:07:57.559Z,100019.06
2022-09-13T01:10:25.388Z,100014.47
2022-09-13T01:12:58.717Z,100005.38
2022-09-13T01:15:27.853Z,99988.41
2022-09-13T01:17:56.920Z,99983.31
2022-09-13T01:20:38.532Z,99979.53
2022-09-13T01:23:51.631Z,99996.75
2022-09-13T01:26:59.122Z,100007.22
2022-09-13T01:29:51.493Z,99999.16
2022-09-13T01:32:29.661Z,99997.81
2022-09-13T01:35:08.160Z,99998.88
2022-09-13T01:37:46.121Z,99998.59
2022-09-13T01:40:24.063Z,99984.06
2022-09-13T01:43:08.612Z,99994.56
2022-09-13T01:45:46.339Z,99995.06
2022-09-13T01:48:22.930Z,99995.06
2022-09-13T01:51:00.254Z,100002.84
2022-09-13T01:53:36.871Z,99992.88
2022-09-13T01:56:11.312Z,99986.72
2022-09-13T01:58:44.753Z,99989.13
2022-09-13T02:01:18.690Z,99994.50
2022-09-13T02:03:55.797Z,100006.88
2022-09-13T02:06:28.037Z,100010.66
2022-09-13T02:08:58.890Z,100024.34
2022-09-13T02:11:27.577Z,100028.94
2022-09-13T02:14:02.696Z,100025.16
2022-09-13T02:16:34.716Z,100016.81
2022-09-13T02:19:10.124Z,100017.63
2022-09-13T02:21:40.680Z,100011.16
2022-09-13T02:24:10.575Z,100018.13
2022-09-13T02:26:41.144Z,100027.28
2022-09-13T02:29:14.227Z,100033.75
2022-09-13T02:31:46.179Z,100035.91
2022-09-13T02:34:20.531Z,100037.00
2022-09-13T02:36:49.843Z,100010.25
2022-09-13T02:39:22.737Z,100041.88
2022-09-13T02:41:56.003Z,100042.13
2022-09-13T02:44:30.388Z,100045.66
2022-09-13T02:47:12.091Z,100055.56
2022-09-13T02:49:54.405Z,100062.84
2022-09-13T02:52:31.109Z,100072.00
2022-09-13T02:55:10.329Z,100078.47
2022-09-13T02:57:42.867Z,100083.03
2022-09-13T03:00:12.443Z,100079.81
2022-09-13T03:02:41.840Z,100077.41
2022-09-13T03:05:11.201Z,100073.63
2022-09-13T03:07:39.435Z,100071.25
2022-09-13T03:10:10.189Z,100068.53
2022-09-13T03:12:57.320Z,100069.88
2022-09-13T03:15:37.381Z,100060.19
2022-09-13T03:18:18.725Z,100052.13
2022-09-13T03:20:58.406Z,100056.69
2022-09-13T03:23:50.484Z,100057.50
2022-09-13T03:26:43.155Z,100055.09
2022-09-13T03:29:23.999Z,100045.16
2022-09-13T03:32:03.552Z,100054.00
2022-09-13T03:34:40.880Z,100047.31
2022-09-13T03:37:17.401Z,100052.72
2022-09-13T03:39:50.475Z,100053.25
2022-09-13T03:42:23.981Z,100058.09
2022-09-13T03:44:55.731Z,100052.19
2022-09-13T03:47:24.899Z,100058.63
2022-09-13T03:49:53.831Z,100052.47
2022-09-13T03:52:23.599Z,100047.88
2022-09-13T03:54:51.457Z,100044.69
2022-09-13T03:57:21.366Z,100045.47
2022-09-13T03:59:51.797Z,100033.94
2022-09-13T04:02:20.693Z,100036.63
2022-09-13T04:04:48.889Z,100039.31
2022-09-13T04:07:19.766Z,100033.13
2022-09-13T04:09:49.030Z,100026.91
2022-09-13T04:12:19.445Z,100025.31
2022-09-13T04:14:47.483Z,100022.63
2022-09-13T04:17:15.737Z,100023.72
2022-09-13T04:19:44.949Z,100029.09
2022-09-13T04:22:12.707Z,100027.50
2022-09-13T04:24:41.129Z,100025.91
2022-09-13T04:27:10.349Z,100020.53
2022-09-13T04:29:38.076Z,100023.47
2022-09-13T04:32:06.357Z,100023.75
2022-09-13T04:34:34.584Z,100015.69
2022-09-13T04:37:02.380Z,100021.06
2022-09-13T04:39:30.504Z,100026.44
2022-09-13T04:41:58.339Z,100019.47
2022-09-13T04:44:28.126Z,100016.00
2022-09-13T04:46:55.877Z,100030.22
2022-09-13T04:49:23.726Z,100029.44
2022-09-13T04:51:51.879Z,100040.44
2022-09-13T04:54:19.994Z,100033.22
2022-09-13T04:56:48.385Z,100040.44
2022-09-13T04:59:16.849Z,100036.16
2022-09-13T05:01:46.100Z,100043.13
2022-09-13T05:04:14.360Z,100052.28
2022-09-13T05:06:42.124Z,100053.09
2022-09-13T05:09:14.575Z,100059.25
2022-09-13T05:11:43.179Z,100066.53
2022-09-13T05:14:12.259Z,100067.31
2022-09-13T05:16:40.611Z,100069.22
2022-09-13T05:19:11.059Z,100074.31
2022-09-13T05:21:39.379Z,100079.69
2022-09-13T05:24:07.398Z,100069.22
2022-09-13T05:26:35.200Z,100069.22
2022-09-13T05:29:03.555Z,100075.38
2022-09-13T05:31:33.130Z,100072.69
2022-09-13T05:34:03.878Z,100069.22
2022-09-13T05:36:33.457Z,100074.59
2022-09-13T05:39:26.375Z,100065.22
2022-09-13T05:41:50.174Z,100058.75
2022-09-13T05:44:18.445Z,100063.03
2022-09-13T05:46:48.183Z,100067.59
2022-09-13T05:49:16.321Z,100059.84
2022-09-13T05:51:45.868Z,100070.28
2022-09-13T05:54:14.184Z,100079.16
2022-09-13T05:56:42.519Z,100068.97
2022-09-13T05:59:13.570Z,100073.78
2022-09-13T06:01:42.198Z,100063.59
2022-09-13T06:04:12.382Z,100064.41
2022-09-13T06:06:40.435Z,100068.69
2022-09-13T06:09:12.518Z,100075.38
2022-09-13T06:11:40.233Z,100064.41
2022-09-13T06:14:08.775Z,100060.63
2022-09-13T06:16:36.821Z,100066.56
2022-09-13T06:19:04.825Z,100074.09
2022-09-13T06:21:32.951Z,100071.72
2022-09-13T06:24:00.718Z,100078.13
2022-09-13T06:26:30.122Z,100082.72
2022-09-13T06:28:59.811Z,100087.31
2022-09-13T06:31:29.249Z,100082.22
2022-09-13T06:33:59.638Z,100080.38
2022-09-13T06:36:27.661Z,100077.69
2022-09-13T06:38:55.892Z,100068.53
2022-09-13T06:41:27.163Z,100071.78
2022-09-13T06:43:58.907Z,100069.59
2022-09-13T06:46:28.159Z,100063.94
2022-09-13T06:48:57.789Z,100062.59
2022-09-13T06:51:27.631Z,100049.16
2022-09-13T06:53:56.795Z,100054.50
2022-09-13T06:56:27.834Z,100057.69
2022-09-13T06:58:59.408Z,100057.66
2022-09-13T07:01:30.233Z,100060.88
2022-09-13T07:04:01.354Z,100060.06
2022-09-13T07:06:31.710Z,100065.94
2022-09-13T07:09:01.690Z,100070.75
2022-09-13T07:11:32.808Z,100060.22
2022-09-13T07:14:02.083Z,100059.69
2022-09-13T07:16:32.005Z,100063.69
2022-09-13T07:19:01.830Z,100065.81
2022-09-13T07:21:30.138Z,100071.69
2022-09-13T07:23:58.860Z,100066.56
2022-09-13T07:26:28.039Z,100074.91
2022-09-13T07:28:57.978Z,100077.81
2022-09-13T07:31:29.611Z,100073.50
2022-09-13T07:33:59.872Z,100070.53
2022-09-13T07:36:28.638Z,100071.84
2022-09-13T07:38:57.032Z,100080.16
2022-09-13T07:41:26.565Z,100079.63
2022-09-13T07:43:54.858Z,100091.41
2022-09-13T07:46:23.945Z,100083.56
2022-09-13T07:48:55.400Z,100081.94
2022-09-13T07:51:24.533Z,100081.13
2022-09-13T07:53:57.336Z,100092.59
2022-09-13T07:56:27.530Z,100096.03
2022-09-13T07:58:55.977Z,100101.34
2022-09-13T08:01:25.664Z,100103.19
2022-09-13T08:03:56.451Z,100100.97
2022-09-13T08:06:26.227Z,100093.38
2022-09-13T08:08:54.355Z,100099.44
2022-09-13T08:11:24.020Z,100092.38
2022-09-13T08:13:53.615Z,100090.91
2022-09-13T08:16:23.519Z,100092.38
2022-09-13T08:18:53.669Z,100083.97
2022-09-13T08:21:24.626Z,100086.00
2022-09-13T08:23:56.656Z,100089.97
2022-09-13T08:26:25.279Z,100092.59
2022-09-13T08:28:58.223Z,100097.91
2022-09-13T08:31:26.536Z,100095.44
2022-09-13T08:33:58.605Z,100097.28
2022-09-13T08:36:29.734Z,100102.59
2022-09-13T08:38:59.436Z,100100.91
2022-09-13T08:41:48.943Z,100094.38
2022-09-13T08:44:27.138Z,100092.41
2022-09-13T08:46:58.034Z,100098.81
2022-09-13T08:49:32.356Z,100102.25
2022-09-13T08:52:07.794Z,100098.16
2022-09-13T08:54:35.998Z,100094.88
2022-09-13T08:57:12.805Z,100095.59
2022-09-13T08:59:56.064Z,100090.13
2022-09-13T09:02:49.774Z,100091.13
2022-09-13T09:05:21.163Z,100083.53
2022-09-13T09:07:54.854Z,100073.75
2022-09-13T09:10:29.100Z,100067.78
2022-09-13T09:12:59.903Z,100063.69
2022-09-13T09:15:35.018Z,100059.59
2022-09-13T09:18:07.687Z,100055.41
2022-09-13T09:20:41.901Z,100061.00
2022-09-13T09:23:21.326Z,100060.97
2022-09-13T09:25:52.713Z,100065.47
2022-09-13T09:28:20.665Z,100063.97
2022-09-13T09:31:00.798Z,100062.47
2022-09-13T09:33:52.483Z,100064.78
2022-09-13T09:36:29.209Z,100057.09
2022-09-13T09:38:58.350Z,100054.00
2022-09-13T09:41:29.683Z,100045.00
2022-09-13T09:44:03.106Z,100035.19
2022-09-13T09:46:35.567Z,100034.28
2022-09-13T09:49:33.771Z,100037.69
2022-09-13T09:52:06.576Z,100025.75
2022-09-13T09:54:38.124Z,100029.47
2022-09-13T09:57:08.615Z,100027.25
2022-09-13T09:59:37.129Z,100032.06
2022-09-13T10:02:21.067Z,100023.34
2022-09-13T10:04:57.858Z,100012.44
2022-09-13T10:07:33.223Z,100015.66
2022-09-13T10:10:06.039Z,100006.91
2022-09-13T10:12:36.089Z,100010.63
2022-09-13T10:15:16.692Z,100007.59
2022-09-13T10:18:01.560Z,100017.34
2022-09-13T10:20:29.866Z,100009.41
2022-09-13T10:23:20.856Z,100014.19
2022-09-13T10:26:12.336Z,100029.81
2022-09-13T10:28:48.185Z,100032.69
2022-09-13T10:31:19.628Z,100037.81
2022-09-13T10:33:58.947Z,100042.31
2022-09-13T10:36:51.651Z,100012.25
2022-09-13T10:39:22.870Z,100014.63
2022-09-13T10:41:54.992Z,100015.16
2022-09-13T10:44:31.674Z,100002.91
2022-09-13T10:47:02.958Z,100003.72
2022-09-13T10:49:44.524Z,100021.25
2022-09-13T10:52:32.111Z,100023.94
2022-09-13T10:55:29.272Z,100020.44
2022-09-13T10:58:14.694Z,100024.41
2022-09-13T11:00:54.323Z,100023.31
2022-09-13T11:03:37.120Z,100026.53
2022-09-13T11:06:17.612Z,100027.00
2022-09-13T11:08:55.871Z,100022.06
2022-09-13T11:11:34.443Z,100019.09
2022-09-13T11:14:21.463Z,100016.06
2022-09-13T11:17:01.225Z,100021.94
2022-09-13T11:19:58.359Z,100018.16
2022-09-13T11:22:59.108Z,100019.44
2022-09-13T11:25:45.120Z,100035.38
2022-09-13T11:28:23.256Z,100030.47
2022-09-13T11:31:08.668Z,100028.25
2022-09-13T11:33:53.754Z,100012.03
2022-09-13T11:36:40.110Z,100013.66
2022-09-13T11:39:19.480Z,100009.84
2022-09-13T11:42:01.523Z,100022.25
2022-09-13T11:45:04.744Z,100015.72
2022-09-13T11:47:47.906Z,100028.94
2022-09-13T11:50:31.367Z,100031.34
2022-09-13T11:53:30.169Z,100024.81
2022-09-13T11:56:04.214Z,100031.03
2022-09-13T11:58:39.077Z,100028.00
2022-09-13T12:01:11.459Z,100026.41
2022-09-13T12:03:47.916Z,100024.22
2022-09-13T12:06:22.772Z,100014.97
2022-09-13T12:08:54.246Z,100012.28
2022-09-13T12:11:26.935Z,100016.25
2022-09-13T12:13:58.476Z,100010.06
2022-09-13T12:16:36.093Z,100008.94
2022-09-13T12:19:13.144Z,100006.75
2022-09-13T12:21:44.990Z,100006.75
2022-09-13T12:24:17.860Z,100002.91
2022-09-13T12:26:51.947Z,99990.97
2022-09-13T12:29:27.378Z,99987.47
2022-09-13T12:32:00.906Z,99996.06
2022-09-13T12:34:40.168Z,99990.66
2022-09-13T12:37:23.468Z,99980.66
2022-09-13T12:40:12.451Z,99983.06
2022-09-13T12:42:59.570Z,99981.94
2022-09-13T12:45:54.773Z,99987.03
2022-09-13T12:48:53.515Z,99983.22
2022-09-13T12:51:40.014Z,99995.66
2022-09-13T12:54:44.034Z,99994.84
2022-09-13T12:57:27.635Z,99991.81
2022-09-13T13:00:12.143Z,99990.25
2022-09-13T13:02:43.998Z,99996.44
2022-09-13T13:05:25.566Z,99987.22
2022-09-13T13:07:58.297Z,99982.59
2022-09-13T13:10:30.930Z,99975.59
2022-09-13T13:13:12.250Z,99977.31
2022-09-13T13:16:23.013Z,99984.44
2022-09-13T13:18:52.691Z,99986.06
2022-09-13T13:21:27.826Z,100000.09
2022-09-13T13:24:33.107Z,99999.28
2022-09-13T13:27:02.611Z,100000.09
2022-09-13T13:29:31.454Z,100008.19
2022-09-13T13:32:11.261Z,100014.09
2022-09-13T13:34:45.199Z,100015.72
2022-09-13T13:37:37.166Z,100011.88
2022-09-13T13:40:24.103Z,100017.31
2022-09-13T13:43:32.100Z,100016.50
2022-09-13T13:46:16.419Z,100019.50
2022-09-13T13:48:45.218Z,100021.72
2022-09-13T13:51:33.955Z,100028.72
2022-09-13T13:54:07.785Z,100029.84
2022-09-13T13:56:48.238Z,100028.25
2022-09-13T13:59:23.875Z,100036.38
2022-09-13T14:01:56.120Z,100035.88
2022-09-13T14:04:59.001Z,100036.97
2022-09-13T14:07:51.627Z,100048.13
2022-09-13T14:10:25.490Z,100046.81
2022-09-13T14:13:14.158Z,100043.63
2022-09-13T14:15:55.420Z,100044.25
2022-09-13T14:18:45.335Z,100047.25
2022-09-13T14:21:22.881Z,100034.06
2022-09-13T14:23:51.501Z,100035.28
2022-09-13T14:26:19.385Z,100029.06
2022-09-13T14:28:48.144Z,100015.84
2022-09-13T14:31:21.365Z,100010.13
2022-09-13T14:33:49.864Z,100000.41
2022-09-13T14:36:21.395Z,99981.97
2022-09-13T14:38:55.025Z,99973.69
2022-09-13T14:41:32.154Z,99977.66
2022-09-13T14:44:22.527Z,99975.78
2022-09-13T14:46:59.382Z,99964.13
2022-09-13T14:49:31.790Z,99966.84
2022-09-13T14:52:03.619Z,99964.97
2022-09-13T14:54:39.177Z,99976.56
2022-09-13T14:57:10.929Z,99968.75
2022-09-13T14:59:46.188Z,99971.44
2022-09-13T15:02:20.330Z,99974.94
2022-09-13T15:04:52.582Z,99977.38
2022-09-13T15:07:24.894Z,99975.78
2022-09-13T15:09:58.642Z,99982.59
2022-09-13T15:12:29.537Z,99994.53
2022-09-13T15:15:24.004Z,99988.31
2022-09-13T15:17:59.420Z,99983.69
2022-09-13T15:20:30.136Z,99978.56
2022-09-13T15:22:58.652Z,99971.56
2022-09-13T15:25:30.088Z,99976.16
2022-09-13T15:27:59.953Z,99980.78
2022-09-13T15:30:30.855Z,99984.59
2022-09-13T15:33:15.501Z,99988.09
2022-09-13T15:35:45.974Z,99993.31
2022-09-13T15:38:22.366Z,99995.22
2022-09-13T15:41:02.309Z,99998.25
2022-09-13T15:43:31.337Z,99984.22
2022-09-13T15:46:01.589Z,99986.44
2022-09-13T15:48:32.926Z,99984.22
2022-09-13T15:51:10.519Z,99984.22
2022-09-13T15:53:40.640Z,99972.25
2022-09-13T15:56:09.905Z,99964.00
2022-09-13T15:58:38.415Z,99949.19
2022-09-13T16:01:07.354Z,99961.31
2022-09-13T16:03:37.096Z,99955.91
2022-09-13T16:06:05.270Z,99955.09
2022-09-13T16:08:33.752Z,99954.00
2022-09-13T16:11:01.673Z,99956.69
2022-09-13T16:13:29.670Z,99951.59
2022-09-13T16:15:58.380Z,99952.72
2022-09-13T16:18:27.231Z,99950.81
2022-09-13T16:20:56.798Z,99948.09
2022-09-13T16:23:25.204Z,99953.00
2022-09-13T16:25:57.121Z,99958.41
2022-09-13T16:28:25.499Z,99956.03
2022-09-13T16:30:54.338Z,99965.25
2022-09-13T16:33:22.571Z,99956.63
2022-09-13T16:35:50.891Z,99965.84
2022-09-13T16:38:20.186Z,99965.84
2022-09-13T16:40:49.068Z,99968.88
2022-09-13T16:43:18.226Z,99960.25
2022-09-13T16:45:46.167Z,99958.66
2022-09-13T16:48:14.387Z,99956.28
2022-09-13T16:50:42.930Z,99956.59
2022-09-13T16:53:10.894Z,99964.19
2022-09-13T16:55:40.379Z,99963.72
2022-09-13T16:58:08.662Z,99961.59
2022-09-13T17:00:36.860Z,99961.13
2022-09-13T17:03:05.394Z,99958.44
2022-09-13T17:05:33.367Z,99951.72
2022-09-13T17:08:01.366Z,99945.31
2022-09-13T17:10:29.295Z,99945.75
2022-09-13T17:12:58.394Z,99942.06
2022-09-13T17:15:26.469Z,99937.56
2022-09-13T17:17:54.581Z,99924.69
2022-09-13T17:20:23.021Z,99922.91
2022-09-13T17:22:51.140Z,99912.19
2022-09-13T17:25:20.852Z,99913.88
2022-09-13T17:27:48.943Z,99919.59
2022-09-13T17:30:18.416Z,99923.41
2022-09-13T17:32:46.497Z,99926.41
2022-09-13T17:35:14.504Z,99930.22
2022-09-13T17:37:42.378Z,99920.84
2022-09-13T17:40:11.170Z,99924.34
2022-09-13T17:42:39.104Z,99924.34
2022-09-13T17:45:07.649Z,99909.50
2022-09-13T17:47:36.862Z,99911.41
2022-09-13T17:50:05.017Z,99911.22
2022-09-13T17:52:35.131Z,99905.03
2022-09-13T17:55:03.426Z,99896.75
2022-09-13T17:57:31.639Z,99912.44
2022-09-13T18:00:00.894Z,99913.03
2022-09-13T18:02:29.625Z,99902.56
2022-09-13T18:05:03.358Z,99902.06
2022-09-13T18:07:33.296Z,99898.06
2022-09-13T18:10:01.571Z,99896.78
2022-09-13T18:12:29.661Z,99890.06
2022-09-13T18:14:57.914Z,99896.88
2022-09-13T18:17:26.058Z,99903.69
2022-09-13T18:19:53.991Z,99907.50
2022-09-13T18:22:23.781Z,99903.63
2022-09-13T18:24:51.692Z,99914.59
2022-09-13T18:27:20.217Z,99906.78
2022-09-13T18:29:48.341Z,99902.50
2022-09-13T18:32:16.202Z,99902.31
2022-09-13T18:34:44.774Z,99899.91
2022-09-13T18:37:12.611Z,99902.91
2022-09-13T18:39:42.205Z,99903.22
2022-09-13T18:42:10.911Z,99914.31
2022-09-13T18:44:38.919Z,99926.50
2022-09-13T18:47:09.236Z,99937.09
2022-09-13T18:49:37.212Z,99930.06
2022-09-13T18:52:05.673Z,99925.28
2022-09-13T18:54:34.381Z,99937.97
2022-09-13T18:57:03.877Z,99942.84
2022-09-13T18:59:33.714Z,99936.47
2022-09-13T19:02:01.726Z,99928.47
2022-09-13T19:04:32.609Z,99935.66
2022-09-13T19:07:02.423Z,99938.19
2022-09-13T19:09:30.334Z,99933.97
2022-09-13T19:11:59.059Z,99928.66
2022-09-13T19:14:29.443Z,99924.16
2022-09-13T19:17:01.226Z,99919.69
2022-09-13T19:19:30.914Z,99917.25
2022-09-13T19:21:59.107Z,99931.06
2022-09-13T19:24:27.129Z,99932.97
2022-09-13T19:26:55.387Z,99925.66
2022-09-13T19:29:25.463Z,99924.06
2022-09-13T19:31:56.014Z,99924.06
2022-09-13T19:34:24.940Z,99925.19
2022-09-13T19:36:57.966Z,99917.88
2022-09-13T19:39:30.003Z,99915.47
2022-09-13T19:41:59.069Z,99920.06
2022-09-13T19:44:27.018Z,99928.16
2022-09-13T19:47:23.669Z,99909.28
2022-09-13T19:49:45.091Z,99917.66
2022-09-13T19:52:14.090Z,99906.88
2022-09-13T19:54:41.891Z,99909.09
2022-09-13T19:57:10.534Z,99906.66
2022-09-13T19:59:38.726Z,99907.78
2022-09-13T20:02:08.268Z,99917.28
2022-09-13T20:04:36.478Z,99918.06
2022-09-13T20:07:04.570Z,99912.94
2022-09-13T20:09:33.297Z,99914.06
2022-09-13T20:12:01.518Z,99921.94
2022-09-13T20:14:29.841Z,99904.84
2022-09-13T20:16:58.644Z,99905.66
2022-09-13T20:19:41.020Z,99899.09
2022-09-13T20:22:10.963Z,99903.78
2022-09-13T20:24:40.046Z,99902.75
2022-09-13T20:27:08.021Z,99903.38
2022-09-13T20:29:36.187Z,99899.13
2022-09-13T20:32:04.806Z,99892.75
2022-09-13T20:34:35.226Z,99890.06
2022-09-13T20:37:03.679Z,99886.53
2022-09-13T20:39:31.657Z,99881.16
2022-09-13T20:41:59.658Z,99872.09
2022-09-13T20:44:28.635Z,99885.25
2022-09-13T20:46:56.591Z,99884.16
2022-09-13T20:49:24.591Z,99894.34
2022-09-13T20:51:54.025Z,99893.25
2022-09-13T20:54:22.203Z,99891.06
2022-09-13T20:56:50.796Z,99891.56
2022-09-13T20:59:18.673Z,99893.16
2022-09-13T21:01:47.216Z,99894.75
2022-09-13T21:04:16.234Z,99900.16
2022-09-13T21:06:58.482Z,99900.69
2022-09-13T21:09:28.074Z,99901.16
2022-09-13T21:11:56.324Z,99909.56
2022-09-13T21:14:24.838Z,99916.84
2022-09-13T21:16:52.958Z,99899.56
2022-09-13T21:19:20.834Z,99907.94
2022-09-13T21:21:48.916Z,99908.53
2022-09-13T21:24:17.189Z,99899.13
2022-09-13T21:26:46.888Z,99905.31
2022-09-13T21:29:14.841Z,99893.75
2022-09-13T21:31:43.121Z,99892.16
2022-09-13T21:34:16.252Z,99882.78
2022-09-13T21:36:45.082Z,99896.03
2022-09-13T21:39:14.041Z,99882.06
2022-09-13T21:41:42.251Z,99880.16
2022-09-13T21:44:11.673Z,99890.16
2022-09-13T21:46:41.716Z,99878.34
2022-09-13T21:49:11.609Z,99892.53
2022-09-13T21:51:41.779Z,99884.16
2022-09-13T21:54:11.856Z,99886.84
2022-09-13T21:56:42.316Z,99883.06
2022-09-13T21:59:15.608Z,99874.38
2022-09-13T22:01:47.116Z,99876.28
2022-09-13T22:04:17.694Z,99868.50
2022-09-13T22:06:47.282Z,99871.69
2022-09-13T22:09:16.467Z,99866.31
2022-09-13T22:11:46.383Z,99868.19
2022-09-13T22:14:19.155Z,99872.19
2022-09-13T22:16:47.696Z,99866.78
2022-09-13T22:19:18.731Z,99857.66
2022-09-13T22:21:49.238Z,99850.13
2022-09-13T22:24:19.441Z,99847.22
2022-09-13T22:26:48.717Z,99847.13
2022-09-13T22:29:18.630Z,99842.31
2022-09-13T22:31:49.324Z,99848.88
2022-09-13T22:34:19.316Z,99847.34
2022-09-13T22:36:47.463Z,99841.25
2022-09-13T22:39:17.527Z,99840.53
2022-09-13T22:41:46.158Z,99841.94
2022-09-13T22:44:14.486Z,99832.03
2022-09-13T22:46:46.439Z,99844.19
2022-09-13T22:49:16.570Z,99839.06
2022-09-13T22:51:46.482Z,99827.81
2022-09-13T22:54:15.389Z,99844.09
2022-09-13T22:56:43.458Z,99837.69
2022-09-13T22:59:14.424Z,99827.44
2022-09-13T23:01:44.248Z,99825.03
2022-09-13T23:04:13.905Z,99830.81
2022-09-13T23:06:43.938Z,99834.69
2022-09-13T23:09:14.867Z,99834.44
2022-09-13T23:11:43.911Z,99830.97
2022-09-13T23:14:13.481Z,99818.28
2022-09-13T23:16:45.518Z,99817.81
2022-09-13T23:19:14.705Z,99806.56
2022-09-13T23:21:43.776Z,99814.63
2022-09-13T23:24:15.198Z,99812.00
2022-09-13T23:26:43.799Z,99820.06
2022-09-13T23:29:15.744Z,99819.78
2022-09-13T23:31:46.951Z,99826.53
2022-09-13T23:34:16.039Z,99823.31
2022-09-13T23:36:45.597Z,99821.78
2022-09-13T23:39:17.371Z,99820.59
2022-09-13T23:41:46.256Z,99824.81
2022-09-13T23:44:14.924Z,99823.47
2022-09-13T23:46:45.327Z,99813.53
2022-09-13T23:49:13.363Z,99821.50
2022-09-13T23:51:41.726Z,99816.44
2022-09-13T23:54:10.366Z,99803.31
2022-09-13T23:56:38.333Z,99814.41
2022-09-13T23:59:07.432Z,99812.41
